createdAt,value
2018-06-03T00:00:40.966Z,92.15
2018-06-03T00:01:40.973Z,92.44
2018-06-03T00:02:40.971Z,92.54
2018-06-03T00:03:40.963Z,92.44
2018-06-03T00:04:40.979Z,92.05
2018-06-03T00:05:40.947Z,92.72
2018-06-03T00:06:40.947Z,92.68
2018-06-03T00:07:40.921Z,92.72
2018-06-03T00:08:40.912Z,92.72
2018-06-03T00:09:40.985Z,92.63
2018-06-03T00:10:40.928Z,92.91
2018-06-03T00:11:40.920Z,92.72
2018-06-03T00:12:40.874Z,92.72
2018-06-03T00:13:40.863Z,92.86
2018-06-03T00:14:40.860Z,92.48
2018-06-03T00:15:40.850Z,92.77
2018-06-03T00:16:40.859Z,92.24
2018-06-03T00:17:40.842Z,92.24
2018-06-03T00:18:40.827Z,92.96
2018-06-03T00:19:40.825Z,92.86
2018-06-03T00:20:40.809Z,92.48
2018-06-03T00:21:40.813Z,92.72
2018-06-03T00:22:40.821Z,92.96
2018-06-03T00:23:40.823Z,92.58
2018-06-03T00:24:40.776Z,92.29
2018-06-03T00:25:40.770Z,91.86
2018-06-03T00:26:40.763Z,91.86
2018-06-03T00:27:40.790Z,91.91
2018-06-03T00:28:40.744Z,92.10
2018-06-03T00:29:40.728Z,91.91
2018-06-03T00:30:40.708Z,91.09
2018-06-03T00:31:40.716Z,91.19
2018-06-03T00:32:40.747Z,91.48
2018-06-03T00:33:40.703Z,90.23
2018-06-03T00:34:40.693Z,89.85
2018-06-03T00:35:40.675Z,90.52
2018-06-03T00:36:40.679Z,91.09
2018-06-03T00:37:40.693Z,91.19
2018-06-03T00:38:40.660Z,90.90
2018-06-03T00:39:40.678Z,91.09
2018-06-03T00:40:40.636Z,90.42
2018-06-03T00:41:40.635Z,90.95
2018-06-03T00:42:40.618Z,90.90
2018-06-03T00:43:40.619Z,91.14
2018-06-03T00:44:40.648Z,92.49
2018-06-03T00:45:40.599Z,92.30
2018-06-03T00:46:40.597Z,92.49
2018-06-03T00:47:40.574Z,92.68
2018-06-03T00:48:40.574Z,93.06
2018-06-03T00:49:40.740Z,93.83
2018-06-03T00:50:40.545Z,94.02
2018-06-03T00:51:40.545Z,93.83
2018-06-03T00:52:40.564Z,94.21
2018-06-03T00:53:40.519Z,94.50
2018-06-03T00:54:40.561Z,93.93
2018-06-03T00:55:40.547Z,94.12
2018-06-03T00:56:40.512Z,93.26
2018-06-03T00:57:40.507Z,94.02
2018-06-03T00:58:40.733Z,93.63
2018-06-03T00:59:40.478Z,93.73
2018-06-03T01:00:40.468Z,93.63
2018-06-03T01:01:40.474Z,93.68
2018-06-03T01:02:40.449Z,93.59
2018-06-03T01:03:40.444Z,93.11
2018-06-03T01:04:40.793Z,93.59
2018-06-03T01:05:40.433Z,93.54
2018-06-03T01:06:40.412Z,93.73
2018-06-03T01:07:40.413Z,93.35
2018-06-03T01:08:40.413Z,93.73
2018-06-03T01:09:40.401Z,93.54
2018-06-03T01:10:40.391Z,93.78
2018-06-03T01:11:40.362Z,93.49
2018-06-03T01:12:40.361Z,93.59
2018-06-03T01:13:40.363Z,92.91
2018-06-03T01:14:40.341Z,93.11
2018-06-03T01:15:40.404Z,92.82
2018-06-03T01:16:40.330Z,92.68
2018-06-03T01:17:40.329Z,93.35
2018-06-03T01:18:40.312Z,93.30
2018-06-03T01:19:40.307Z,93.26
2018-06-03T01:20:40.291Z,93.26
2018-06-03T01:21:40.339Z,93.93
2018-06-03T01:22:40.282Z,93.93
2018-06-03T01:23:40.270Z,93.83
2018-06-03T01:24:40.266Z,93.73
2018-06-03T01:25:40.240Z,93.73
2018-06-03T01:26:40.277Z,94.40
2018-06-03T01:27:40.228Z,94.31
2018-06-03T01:28:40.259Z,94.21
2018-06-03T01:29:40.258Z,95.26
2018-06-03T01:30:40.199Z,94.89
2018-06-03T01:31:40.202Z,95.26
2018-06-03T01:32:40.185Z,95.17
2018-06-03T01:33:40.238Z,94.89
2018-06-03T01:34:40.169Z,95.26
2018-06-03T01:35:40.157Z,95.07
2018-06-03T01:36:40.163Z,95.17
2018-06-03T01:37:40.146Z,94.54
2018-06-03T01:38:40.141Z,95.17
2018-06-03T01:39:40.127Z,94.40
2018-06-03T01:40:40.123Z,94.21
2018-06-03T01:41:40.114Z,94.21
2018-06-03T01:42:40.095Z,94.59
2018-06-03T01:43:40.098Z,94.50
2018-06-03T01:44:40.204Z,94.45
2018-06-03T01:45:40.066Z,94.31
2018-06-03T01:46:40.101Z,94.40
2018-06-03T01:47:40.064Z,94.50
2018-06-03T01:48:40.045Z,94.59
2018-06-03T01:49:40.031Z,94.31
2018-06-03T01:50:40.061Z,94.40
2018-06-03T01:51:40.020Z,94.40
2018-06-03T01:52:40.014Z,94.31
2018-06-03T01:53:40.005Z,94.35
2018-06-03T01:54:40.061Z,94.45
2018-06-03T01:55:39.984Z,94.54
2018-06-03T01:56:39.973Z,93.88
2018-06-03T01:57:39.994Z,93.97
2018-06-03T01:58:39.960Z,94.26
2018-06-03T01:59:39.954Z,94.26
2018-06-03T02:00:39.999Z,93.68
2018-06-03T02:01:39.929Z,93.40
2018-06-03T02:02:39.945Z,93.40
2018-06-03T02:03:39.927Z,93.83
2018-06-03T02:04:39.903Z,93.83
2018-06-03T02:05:39.917Z,94.54
2018-06-03T02:06:39.976Z,94.54
2018-06-03T02:07:40.088Z,94.07
2018-06-03T02:08:39.869Z,94.35
2018-06-03T02:09:39.865Z,94.45
2018-06-03T02:10:39.861Z,94.45
2018-06-03T02:11:39.890Z,94.74
2018-06-03T02:12:39.863Z,94.35
2018-06-03T02:13:39.831Z,94.35
2018-06-03T02:14:39.823Z,94.07
2018-06-03T02:15:40.739Z,94.54
2018-06-03T02:16:39.816Z,94.64
2018-06-03T02:17:39.789Z,93.88
2018-06-03T02:18:39.773Z,94.07
2018-06-03T02:19:39.779Z,94.26
2018-06-03T02:20:39.761Z,93.21
2018-06-03T02:21:39.780Z,93.78
2018-06-03T02:22:39.779Z,93.68
2018-06-03T02:23:40.102Z,93.83
2018-06-03T02:24:39.767Z,93.44
2018-06-03T02:25:39.717Z,93.73
2018-06-03T02:26:39.715Z,93.63
2018-06-03T02:27:39.758Z,94.59
2018-06-03T02:28:39.701Z,94.21
2018-06-03T02:29:39.725Z,94.17
2018-06-03T02:30:39.698Z,93.88
2018-06-03T02:31:39.682Z,93.78
2018-06-03T02:32:39.655Z,93.83
2018-06-03T02:33:39.656Z,94.17
2018-06-03T02:34:39.675Z,93.88
2018-06-03T02:35:39.635Z,93.68
2018-06-03T02:36:39.624Z,94.07
2018-06-03T02:37:39.628Z,94.07
2018-06-03T02:38:39.602Z,93.68
2018-06-03T02:39:39.630Z,94.17
2018-06-03T02:40:39.600Z,93.88
2018-06-03T02:41:39.593Z,93.97
2018-06-03T02:42:39.584Z,93.97
2018-06-03T02:43:39.574Z,93.49
2018-06-03T02:44:39.615Z,93.73
2018-06-03T02:45:39.555Z,93.44
2018-06-03T02:46:39.543Z,93.44
2018-06-03T02:47:39.534Z,93.93
2018-06-03T02:48:39.535Z,93.83
2018-06-03T02:49:40.260Z,93.73
2018-06-03T02:50:40.337Z,94.21
2018-06-03T02:51:39.500Z,94.02
2018-06-03T02:52:39.510Z,94.02
2018-06-03T02:53:39.527Z,93.73
2018-06-03T02:54:39.517Z,93.54
2018-06-03T02:55:39.810Z,93.73
2018-06-03T02:56:39.501Z,93.44
2018-06-03T02:57:39.451Z,94.12
2018-06-03T02:58:39.443Z,93.93
2018-06-03T02:59:39.458Z,94.12
2018-06-03T03:00:39.610Z,93.83
2018-06-03T03:01:39.440Z,93.73
2018-06-03T03:02:39.413Z,93.73
2018-06-03T03:03:39.408Z,93.63
2018-06-03T03:04:39.385Z,93.83
2018-06-03T03:05:39.408Z,93.83
2018-06-03T03:06:39.413Z,93.06
2018-06-03T03:07:39.348Z,93.06
2018-06-03T03:08:39.370Z,93.73
2018-06-03T03:09:39.355Z,93.54
2018-06-03T03:10:41.337Z,93.93
2018-06-03T03:11:40.341Z,94.21
2018-06-03T03:12:39.329Z,93.83
2018-06-03T03:13:39.348Z,93.35
2018-06-03T03:14:39.358Z,93.63
2018-06-03T03:15:39.293Z,93.35
2018-06-03T03:16:39.296Z,93.06
2018-06-03T03:17:39.284Z,93.06
2018-06-03T03:18:40.265Z,93.06
2018-06-03T03:19:39.348Z,93.35
2018-06-03T03:20:40.773Z,93.16
2018-06-03T03:21:39.804Z,92.87
2018-06-03T03:22:39.295Z,93.26
2018-06-03T03:23:39.827Z,93.16
2018-06-03T03:24:39.774Z,92.58
2018-06-03T03:25:39.201Z,92.10
2018-06-03T03:26:39.767Z,92.10
2018-06-03T03:27:39.187Z,92.68
2018-06-03T03:28:39.204Z,92.87
2018-06-03T03:29:39.761Z,92.49
2018-06-03T03:30:39.181Z,92.68
2018-06-03T04:32:46.560Z,98.14
2018-06-03T04:33:46.538Z,98.14
2018-06-03T04:34:46.528Z,98.14
2018-06-03T04:35:46.729Z,98.33
2018-06-03T04:36:46.500Z,98.05
2018-06-03T04:37:46.498Z,98.33
2018-06-03T04:38:46.474Z,98.33
2018-06-03T04:39:46.473Z,98.14
2018-06-03T04:40:46.506Z,98.24
2018-06-03T04:41:46.485Z,97.56
2018-06-03T04:42:46.449Z,97.85
2018-06-03T04:43:46.426Z,97.85
2018-06-03T04:44:46.419Z,97.56
2018-06-03T04:45:46.410Z,97.85
2018-06-03T04:46:46.761Z,97.76
2018-06-03T04:47:46.390Z,97.76
2018-06-03T04:48:46.410Z,97.76
2018-06-03T04:49:46.376Z,97.85
2018-06-03T04:50:46.369Z,97.76
2018-06-03T04:51:46.356Z,97.56
2018-06-03T04:52:46.489Z,97.66
2018-06-03T04:53:46.337Z,97.56
2018-06-03T04:54:46.329Z,97.66
2018-06-03T04:55:46.319Z,97.66
2018-06-03T04:56:46.307Z,97.71
2018-06-03T04:57:46.304Z,97.71
2018-06-03T04:58:46.742Z,97.81
2018-06-03T04:59:46.272Z,97.52
2018-06-03T05:00:46.286Z,98.00
2018-06-03T05:01:46.267Z,97.71
2018-06-03T05:02:46.263Z,97.61
2018-06-03T05:03:46.245Z,97.61
2018-06-03T05:04:46.324Z,97.71
2018-06-03T05:05:46.231Z,97.81
2018-06-03T05:06:46.221Z,97.52
2018-06-03T05:07:46.207Z,97.52
2018-06-03T05:08:46.191Z,97.33
2018-06-03T05:09:46.186Z,97.52
2018-06-03T05:10:46.194Z,97.14
2018-06-03T05:11:46.171Z,97.14
2018-06-03T05:12:46.170Z,97.71
2018-06-03T05:13:46.149Z,98.00
2018-06-03T05:14:46.184Z,97.81
2018-06-03T05:15:46.146Z,97.81
2018-06-03T05:16:46.150Z,97.81
2018-06-03T05:17:46.133Z,97.81
2018-06-03T05:18:46.112Z,98.28
2018-06-03T05:19:46.100Z,98.38
2018-06-03T05:20:46.097Z,98.48
2018-06-03T05:21:46.122Z,98.28
2018-06-03T05:22:46.091Z,98.28
2018-06-03T05:23:46.077Z,98.48
2018-06-03T05:24:46.063Z,98.48
2018-06-03T05:25:46.051Z,97.81
2018-06-03T05:26:46.077Z,98.00
2018-06-03T05:27:46.058Z,97.61
2018-06-03T05:28:46.031Z,97.33
2018-06-03T05:29:46.054Z,97.71
2018-06-03T05:30:46.014Z,97.61
2018-06-03T05:31:45.993Z,97.81
2018-06-03T05:32:45.995Z,98.00
2018-06-03T05:33:46.134Z,97.76
2018-06-03T05:34:45.973Z,98.00
2018-06-03T05:35:45.967Z,97.42
2018-06-03T05:36:45.952Z,97.71
2018-06-03T05:37:45.961Z,96.85
2018-06-03T05:38:45.946Z,96.56
2018-06-03T05:39:46.091Z,96.85
2018-06-03T05:40:45.927Z,96.85
2018-06-03T05:41:45.914Z,96.75
2018-06-03T05:42:45.913Z,96.75
2018-06-03T05:43:45.903Z,97.14
2018-06-03T05:44:45.891Z,97.42
2018-06-03T05:45:45.893Z,97.52
2018-06-03T05:46:45.874Z,97.04
2018-06-03T05:47:45.865Z,96.99
2018-06-03T05:48:45.861Z,96.66
2018-06-03T05:49:45.850Z,96.75
2018-06-03T05:50:45.863Z,97.71
2018-06-03T05:51:45.832Z,97.71
2018-06-03T05:52:45.821Z,97.47
2018-06-03T05:53:45.820Z,97.33
2018-06-03T05:54:45.809Z,98.05
2018-06-03T05:55:45.803Z,97.56
2018-06-03T05:56:45.841Z,97.66
2018-06-03T05:57:45.785Z,97.56
2018-06-03T05:58:45.782Z,98.33
2018-06-03T05:59:45.759Z,98.43
2018-06-03T06:00:45.760Z,98.62
2018-06-03T06:01:45.754Z,98.33
2018-06-03T06:02:45.744Z,98.43
2018-06-03T06:03:45.727Z,98.33
2018-06-03T06:04:45.716Z,98.24
2018-06-03T06:05:45.717Z,98.24
2018-06-03T06:06:45.707Z,98.29
2018-06-03T06:07:45.711Z,98.53
2018-06-03T06:08:45.685Z,98.82
2018-06-03T06:09:45.687Z,98.77
2018-06-03T06:10:45.676Z,98.38
2018-06-03T06:11:45.662Z,98.58
2018-06-03T06:12:45.654Z,97.61
2018-06-03T06:13:45.653Z,98.19
2018-06-03T06:14:45.638Z,98.00
2018-06-03T06:15:45.847Z,98.00
2018-06-03T06:16:45.624Z,97.91
2018-06-03T06:17:45.619Z,97.81
2018-06-03T06:18:45.623Z,98.38
2018-06-03T06:19:45.609Z,98.19
2018-06-03T06:20:45.629Z,98.19
2018-06-03T06:21:45.586Z,97.91
2018-06-03T06:22:45.584Z,98.00
2018-06-03T06:23:45.563Z,97.42
2018-06-03T06:24:45.564Z,97.52
2018-06-03T06:25:45.585Z,97.71
2018-06-03T06:26:45.547Z,97.52
2018-06-03T06:27:45.533Z,97.52
2018-06-03T06:28:45.527Z,97.52
2018-06-03T06:29:45.519Z,97.52
2018-06-03T06:30:45.551Z,97.33
2018-06-03T06:31:45.505Z,97.24
2018-06-03T06:32:45.515Z,97.24
2018-06-03T06:33:45.495Z,97.86
2018-06-03T06:34:45.510Z,97.57
2018-06-03T06:35:45.472Z,97.38
2018-06-03T06:36:45.469Z,97.96
2018-06-03T06:37:45.475Z,97.42
2018-06-03T06:38:45.445Z,97.96
2018-06-03T06:39:45.441Z,97.38
2018-06-03T06:40:45.485Z,97.86
2018-06-03T06:41:45.432Z,97.19
2018-06-03T06:42:45.454Z,97.47
2018-06-03T06:43:45.454Z,97.57
2018-06-03T06:44:45.406Z,97.57
2018-06-03T06:45:45.405Z,97.57
2018-06-03T06:46:45.396Z,97.57
2018-06-03T06:47:45.392Z,97.76
2018-06-03T06:48:45.408Z,96.80
2018-06-03T06:49:45.373Z,97.47
2018-06-03T06:50:45.369Z,97.96
2018-06-03T06:51:45.371Z,98.14
2018-06-03T06:52:45.353Z,98.14
2018-06-03T06:53:45.348Z,97.57
2018-06-03T06:54:45.350Z,98.14
2018-06-03T06:55:45.326Z,97.96
2018-06-03T06:56:45.324Z,97.96
2018-06-03T06:57:45.334Z,98.91
2018-06-03T06:58:45.312Z,99.30
2018-06-03T06:59:45.310Z,98.91
2018-06-03T07:00:45.297Z,98.91
2018-06-03T07:01:45.299Z,99.10
2018-06-03T07:02:45.285Z,99.10
2018-06-03T07:03:45.271Z,99.10
2018-06-03T07:04:45.315Z,99.01
2018-06-03T07:05:45.278Z,99.30
2018-06-03T07:06:45.306Z,99.01
2018-06-03T07:07:45.248Z,99.49
2018-06-03T07:08:45.230Z,99.63
2018-06-03T07:09:47.263Z,99.58
2018-06-03T07:10:45.265Z,99.73
2018-06-03T07:11:45.217Z,99.06
2018-06-03T07:12:45.208Z,99.06
2018-06-03T07:13:45.196Z,98.86
2018-06-03T07:14:45.202Z,99.54
2018-06-03T07:15:45.224Z,99.73
2018-06-03T07:16:45.189Z,99.44
2018-06-03T07:17:45.193Z,98.77
2018-06-03T07:18:45.174Z,98.10
2018-06-03T07:19:45.160Z,97.91
2018-06-03T07:20:45.198Z,97.42
2018-06-03T07:21:45.149Z,96.85
2018-06-03T07:22:45.171Z,95.79
2018-06-03T07:23:45.138Z,95.21
2018-06-03T07:24:45.137Z,94.45
2018-06-03T07:25:45.181Z,95.70
2018-06-03T07:26:45.116Z,95.12
2018-06-03T07:27:45.111Z,95.79
2018-06-03T07:28:45.106Z,95.89
2018-06-03T07:29:45.097Z,95.98
2018-06-03T07:30:45.081Z,96.08
2018-06-03T07:31:45.075Z,96.47
2018-06-03T07:32:45.078Z,96.75
2018-06-03T07:33:45.068Z,96.37
2018-06-03T07:34:45.069Z,96.80
2018-06-03T07:35:45.082Z,97.47
2018-06-03T07:36:45.049Z,97.28
2018-06-03T07:37:45.036Z,96.32
2018-06-03T07:38:45.042Z,97.19
2018-06-03T07:39:45.032Z,95.94
2018-06-03T07:40:45.084Z,95.36
2018-06-03T07:41:45.016Z,95.65
2018-06-03T07:42:45.013Z,94.88
2018-06-03T07:43:44.999Z,94.49
2018-06-03T07:44:44.994Z,94.88
2018-06-03T07:45:44.991Z,94.68
2018-06-03T07:46:44.992Z,94.68
2018-06-03T07:47:45.243Z,94.59
2018-06-03T07:48:45.007Z,95.65
2018-06-03T07:49:44.964Z,95.75
2018-06-03T07:50:44.967Z,95.45
2018-06-03T07:51:44.955Z,95.55
2018-06-03T07:52:44.949Z,94.64
2018-06-03T07:53:44.967Z,95.02
2018-06-03T07:54:44.939Z,93.96
2018-06-03T07:55:44.922Z,93.87
2018-06-03T07:56:44.925Z,93.58
2018-06-03T07:57:44.920Z,93.96
2018-06-03T07:58:44.957Z,94.15
2018-06-03T07:59:44.894Z,94.25
2018-06-03T08:00:44.892Z,93.38
2018-06-03T08:01:44.885Z,93.00
2018-06-03T08:02:44.901Z,92.52
2018-06-03T08:03:44.866Z,92.71
2018-06-03T08:04:44.878Z,92.33
2018-06-03T08:05:44.861Z,92.52
2018-06-03T08:06:44.853Z,91.66
2018-06-03T08:07:44.852Z,92.71
2018-06-03T08:08:44.859Z,92.91
2018-06-03T08:09:44.840Z,93.00
2018-06-03T08:10:44.824Z,92.81
2018-06-03T08:11:44.826Z,91.56
2018-06-03T08:12:44.817Z,90.98
2018-06-03T08:13:44.820Z,91.56
2018-06-03T08:14:44.906Z,91.61
2018-06-03T08:15:44.799Z,92.67
2018-06-03T08:16:44.795Z,92.19
2018-06-03T08:17:44.799Z,92.57
2018-06-03T08:18:44.790Z,92.47
2018-06-03T08:19:44.772Z,92.76
2018-06-03T08:20:44.791Z,90.84
2018-06-03T08:21:44.760Z,90.65
2018-06-03T08:22:44.763Z,90.45
2018-06-03T08:23:44.743Z,89.21
2018-06-03T08:24:44.765Z,88.92
2018-06-03T08:25:44.724Z,89.88
2018-06-03T08:26:44.727Z,89.40
2018-06-03T08:27:44.724Z,88.92
2018-06-03T08:28:44.715Z,88.53
2018-06-03T08:29:44.870Z,88.53
2018-06-03T08:30:44.694Z,88.24
2018-06-03T08:31:44.690Z,87.04
2018-06-03T08:32:44.687Z,87.29
2018-06-03T08:33:44.683Z,86.90
2018-06-03T08:34:44.673Z,87.09
2018-06-03T08:35:44.691Z,87.04
2018-06-03T08:36:44.690Z,86.80
2018-06-03T08:37:44.654Z,86.52
2018-06-03T08:38:44.640Z,86.99
2018-06-03T08:39:44.645Z,87.09
2018-06-03T08:40:44.631Z,87.09
2018-06-03T08:41:44.658Z,86.90
2018-06-03T08:42:44.625Z,88.06
2018-06-03T08:43:44.607Z,88.15
2018-06-03T08:44:44.607Z,87.96
2018-06-03T08:45:44.608Z,88.15
2018-06-03T08:46:44.665Z,88.15
2018-06-03T08:47:44.581Z,87.76
2018-06-03T08:48:44.582Z,87.67
2018-06-03T08:49:44.573Z,88.82
2018-06-03T08:50:44.567Z,87.76
2018-06-03T08:51:44.562Z,88.92
2018-06-03T08:52:44.583Z,87.57
2018-06-03T08:53:44.541Z,87.09
2018-06-03T08:54:44.563Z,87.67
2018-06-03T08:55:44.529Z,87.76
2018-06-03T08:56:44.528Z,88.24
2018-06-03T08:57:44.517Z,89.15
2018-06-03T08:58:44.593Z,88.39
2018-06-03T08:59:44.520Z,85.84
2018-06-03T09:00:44.488Z,85.69
2018-06-03T09:01:44.521Z,85.88
2018-06-03T09:02:44.488Z,84.83
2018-06-03T09:03:44.489Z,86.36
2018-06-03T09:04:44.471Z,86.08
2018-06-03T09:05:44.467Z,86.46
2018-06-03T09:06:44.517Z,84.92
2018-06-03T09:07:44.450Z,85.40
2018-06-03T09:08:44.446Z,85.11
2018-06-03T09:09:44.448Z,84.34
2018-06-03T09:10:44.449Z,84.73
2018-06-03T09:11:46.390Z,84.83
2018-06-03T09:12:44.463Z,85.69
2018-06-03T09:13:44.410Z,84.16
2018-06-03T09:14:44.467Z,83.39
2018-06-03T09:15:44.415Z,83.48
2018-06-03T09:16:44.399Z,84.44
2018-06-03T09:17:44.686Z,84.34
2018-06-03T09:18:44.391Z,83.96
2018-06-03T09:19:44.412Z,84.44
2018-06-03T09:20:44.387Z,84.83
2018-06-03T09:21:44.358Z,84.83
2018-06-03T09:22:44.360Z,85.16
2018-06-03T09:24:44.402Z,83.52
2018-06-03T09:25:44.332Z,83.77
2018-06-03T09:26:44.328Z,84.00
2018-06-03T09:27:44.341Z,84.19
2018-06-03T09:28:44.324Z,83.14
2018-06-03T09:29:44.322Z,82.94
2018-06-03T09:30:44.320Z,83.52
2018-06-03T09:31:44.439Z,84.10
2018-06-03T09:32:44.312Z,84.48
2018-06-03T09:33:44.304Z,82.94
2018-06-03T09:34:44.366Z,81.88
2018-06-03T09:35:44.291Z,79.86
2018-06-03T09:36:44.319Z,80.54
2018-06-03T09:37:44.284Z,81.02
2018-06-03T09:38:44.268Z,80.06
2018-06-03T09:39:44.272Z,80.44
2018-06-03T09:40:44.267Z,80.44
2018-06-03T09:41:44.293Z,81.40
2018-06-03T09:42:44.264Z,81.30
2018-06-03T09:43:44.255Z,81.02
2018-06-03T09:44:44.247Z,81.40
2018-06-03T09:45:44.243Z,81.50
2018-06-03T09:46:44.288Z,80.83
2018-06-03T09:47:44.232Z,80.54
2018-06-03T09:48:44.230Z,80.54
2018-06-03T09:49:44.238Z,81.30
2018-06-03T09:50:44.236Z,81.50
2018-06-03T09:51:44.210Z,81.02
2018-06-03T09:52:44.218Z,81.63
2018-06-03T09:53:44.215Z,81.25
2018-06-03T09:54:44.236Z,81.93
2018-06-03T09:55:44.204Z,81.06
2018-06-03T09:56:44.228Z,80.00
2018-06-03T09:57:44.196Z,78.94
2018-06-03T09:58:44.189Z,78.85
2018-06-03T09:59:44.186Z,79.13
2018-06-03T10:00:44.189Z,80.43
2018-06-03T10:01:44.312Z,80.14
2018-06-03T10:02:44.182Z,78.88
2018-06-03T10:03:44.183Z,79.66
2018-06-03T10:04:44.174Z,79.98
2018-06-03T10:05:44.175Z,80.08
2018-06-03T10:06:44.169Z,80.27
2018-06-03T10:07:44.201Z,76.23
2018-06-03T10:08:44.163Z,75.45
2018-06-03T10:09:44.170Z,75.65
2018-06-03T10:10:44.165Z,75.07
2018-06-03T10:11:44.162Z,76.03
2018-06-03T10:12:44.314Z,76.55
2018-06-03T10:13:44.161Z,76.36
2018-06-03T10:14:44.162Z,77.90
2018-06-03T10:15:44.143Z,77.33
2018-06-03T10:16:44.148Z,75.20
2018-06-03T10:17:44.142Z,74.72
2018-06-03T10:18:44.158Z,74.05
2018-06-03T10:19:44.143Z,74.58
2018-06-03T10:20:44.154Z,75.36
2018-06-03T10:21:44.150Z,76.32
2018-06-03T10:22:44.190Z,76.32
2018-06-03T10:23:44.204Z,75.55
2018-06-03T10:24:44.156Z,74.58
2018-06-03T10:25:44.145Z,75.36
2018-06-03T10:26:44.139Z,76.42
2018-06-03T10:27:44.148Z,76.90
2018-06-03T10:28:44.151Z,76.45
2018-06-03T10:29:44.145Z,75.30
2018-06-03T10:30:44.142Z,74.62
2018-06-03T10:31:44.145Z,74.62
2018-06-03T10:32:44.144Z,75.14
2018-06-03T10:33:44.186Z,73.99
2018-06-03T10:34:44.141Z,73.83
2018-06-03T10:35:44.140Z,74.12
2018-06-03T10:36:44.135Z,71.42
2018-06-03T10:37:44.147Z,68.91
2018-06-03T10:38:44.139Z,72.00
2018-06-03T10:39:44.172Z,73.63
2018-06-03T10:40:44.145Z,72.58
2018-06-03T10:41:44.133Z,71.90
2018-06-03T10:42:44.143Z,70.74
2018-06-03T10:43:44.148Z,71.09
2018-06-03T10:44:44.201Z,72.09
2018-06-03T10:45:44.148Z,72.38
2018-06-03T10:46:44.139Z,72.28
2018-06-03T10:47:44.149Z,72.86
2018-06-03T10:48:44.585Z,73.35
2018-06-03T10:49:44.149Z,70.54
2018-06-03T10:50:44.150Z,71.22
2018-06-03T10:51:44.148Z,70.94
2018-06-03T10:52:44.155Z,72.28
2018-06-03T10:53:44.156Z,70.54
2018-06-03T10:54:44.174Z,68.91
2018-06-03T10:55:44.146Z,69.78
2018-06-03T10:56:44.156Z,68.13
2018-06-03T10:57:44.146Z,68.13
2018-06-03T10:58:44.160Z,67.75
2018-06-03T10:59:44.165Z,66.78
2018-06-03T11:00:44.162Z,66.97
2018-06-03T11:01:44.156Z,67.46
2018-06-03T11:02:44.167Z,68.81
2018-06-03T11:03:44.168Z,70.78
2018-06-03T11:04:44.167Z,68.84
2018-06-03T11:05:44.171Z,69.07
2018-06-03T11:06:44.944Z,66.98
2018-06-03T11:07:44.209Z,65.95
2018-06-03T11:08:44.175Z,66.72
2018-06-03T11:09:44.211Z,64.69
2018-06-03T11:10:44.186Z,64.47
2018-06-03T11:11:44.173Z,65.63
2018-06-03T11:12:44.177Z,65.08
2018-06-03T11:13:44.199Z,64.59
2018-06-03T11:14:44.224Z,63.82
2018-06-03T11:15:44.203Z,61.98
2018-06-03T11:16:44.251Z,62.76
2018-06-03T11:17:44.218Z,64.43
2018-06-03T11:18:44.552Z,64.62
2018-06-03T11:19:44.348Z,63.49
2018-06-03T11:20:44.207Z,61.08
2018-06-03T11:21:44.228Z,60.75
2018-06-03T11:22:44.230Z,59.31
2018-06-03T11:23:44.223Z,60.27
2018-06-03T11:24:44.499Z,60.95
2018-06-03T11:25:44.246Z,60.95
2018-06-03T11:26:44.240Z,61.53
2018-06-03T11:27:44.241Z,60.11
2018-06-03T11:28:44.261Z,60.21
2018-06-03T11:29:44.262Z,61.43
2018-06-03T11:30:44.334Z,60.57
2018-06-03T11:31:44.275Z,62.59
2018-06-03T11:32:44.271Z,62.11
2018-06-03T11:33:44.279Z,62.69
2018-06-03T11:34:44.282Z,63.79
2018-06-03T11:35:44.277Z,61.79
2018-06-03T11:36:44.321Z,60.14
2018-06-03T11:37:44.292Z,60.21
2018-06-03T11:38:44.295Z,62.34
2018-06-03T11:39:44.307Z,60.11
2018-06-03T11:40:44.318Z,60.50
2018-06-03T11:41:44.519Z,61.08
2018-06-03T11:42:44.331Z,62.37
2018-06-03T11:43:44.338Z,60.01
2018-06-03T11:44:44.331Z,60.30
2018-06-03T11:45:44.341Z,61.36
2018-06-03T11:46:44.374Z,60.47
2018-06-03T11:47:44.534Z,61.63
2018-06-03T11:48:44.701Z,62.01
2018-06-03T11:49:44.348Z,60.82
2018-06-03T11:50:44.370Z,61.02
2018-06-03T11:51:44.354Z,62.08
2018-06-03T11:52:44.358Z,63.05
2018-06-03T11:53:44.369Z,63.21
2018-06-03T11:54:44.380Z,62.92
2018-06-03T11:55:44.512Z,63.40
2018-06-03T11:56:44.370Z,64.53
2018-06-03T11:57:44.368Z,65.69
2018-06-03T11:58:44.377Z,65.40
2018-06-03T11:59:44.381Z,64.59
2018-06-03T12:00:44.404Z,66.91
2018-06-03T12:01:44.408Z,66.33
2018-06-03T12:02:44.375Z,66.91
2018-06-03T12:03:44.376Z,65.85
2018-06-03T12:04:44.369Z,65.95
2018-06-03T12:05:44.529Z,66.88
2018-06-03T12:06:44.373Z,66.88
2018-06-03T12:07:44.374Z,66.97
2018-06-03T12:08:44.365Z,67.17
2018-06-03T12:09:44.365Z,67.46
2018-06-03T12:10:44.367Z,67.46
2018-06-03T12:11:44.390Z,68.23
2018-06-03T12:12:44.367Z,69.81
2018-06-03T12:13:44.369Z,69.23
2018-06-03T12:14:44.349Z,67.97
2018-06-03T12:15:44.390Z,67.11
2018-06-03T12:16:44.389Z,67.40
2018-06-03T12:17:44.389Z,68.36
2018-06-03T12:18:44.347Z,68.65
2018-06-03T12:19:44.349Z,69.04
2018-06-03T12:20:44.344Z,67.88
2018-06-03T12:21:44.369Z,67.88
2018-06-03T12:22:44.331Z,68.36
2018-06-03T12:23:44.330Z,68.26
2018-06-03T12:24:44.336Z,66.69
2018-06-03T12:25:44.322Z,66.11
2018-06-03T12:26:44.364Z,66.01
2018-06-03T12:27:44.410Z,67.07
2018-06-03T12:28:44.397Z,66.78
2018-06-03T12:29:44.321Z,67.46
2018-06-03T12:30:44.321Z,68.23
2018-06-03T12:31:44.320Z,69.68
2018-06-03T12:32:44.314Z,68.71
2018-06-03T12:33:44.342Z,69.87
2018-06-03T12:34:44.310Z,69.58
2018-06-03T12:35:44.300Z,69.84
2018-06-03T12:36:44.289Z,69.93
2018-06-03T12:37:44.345Z,71.28
2018-06-03T12:38:44.293Z,70.80
2018-06-03T12:39:44.285Z,71.00
2018-06-03T12:40:44.327Z,71.19
2018-06-03T12:41:44.304Z,71.48
2018-06-03T12:42:44.280Z,72.28
2018-06-03T12:43:44.273Z,71.22
2018-06-03T12:44:44.281Z,71.22
2018-06-03T12:45:44.261Z,70.54
2018-06-03T12:46:44.301Z,69.20
2018-06-03T12:47:44.256Z,69.78
2018-06-03T12:48:44.260Z,69.58
2018-06-03T12:49:44.260Z,68.62
2018-06-03T12:50:44.266Z,68.33
2018-06-03T12:51:44.265Z,68.23
2018-06-03T12:52:44.271Z,69.07
2018-06-03T12:53:44.250Z,69.93
2018-06-03T12:54:44.263Z,69.84
2018-06-03T12:55:44.239Z,69.93
2018-06-03T12:56:44.245Z,69.93
2018-06-03T12:57:44.245Z,70.64
2018-06-03T12:58:44.228Z,70.06
2018-06-03T12:59:44.366Z,69.97
2018-06-03T13:00:44.219Z,69.84
2018-06-03T13:01:44.220Z,69.74
2018-06-03T13:02:44.216Z,69.93
2018-06-03T13:03:44.206Z,70.42
2018-06-03T13:04:44.208Z,69.90
2018-06-03T13:05:44.232Z,71.44
2018-06-03T13:06:44.197Z,71.73
2018-06-03T13:07:44.229Z,72.25
2018-06-03T13:08:44.215Z,71.38
2018-06-03T13:09:44.190Z,71.19
2018-06-03T13:10:44.189Z,71.38
2018-06-03T13:11:44.189Z,71.86
2018-06-03T13:12:44.216Z,72.19
2018-06-03T13:13:44.178Z,70.80
2018-06-03T13:14:44.177Z,70.64
2018-06-03T13:15:44.166Z,69.97
2018-06-03T13:16:44.182Z,69.64
2018-06-03T13:17:44.159Z,70.70
2018-06-03T13:18:44.191Z,70.80
2018-06-03T13:19:44.146Z,72.83
2018-06-03T13:20:44.150Z,72.34
2018-06-03T13:21:44.148Z,69.64
2018-06-03T13:22:44.141Z,69.61
2018-06-03T13:23:44.166Z,70.57
2018-06-03T13:24:44.134Z,71.73
2018-06-03T13:25:44.130Z,72.60
2018-06-03T13:26:44.127Z,72.89
2018-06-03T13:27:44.116Z,73.21
2018-06-03T13:28:44.137Z,72.41
2018-06-03T13:29:44.113Z,72.79
2018-06-03T13:30:44.105Z,72.89
2018-06-03T13:31:44.106Z,72.63
2018-06-03T13:32:44.089Z,72.41
2018-06-03T13:33:44.135Z,72.54
2018-06-03T13:34:44.089Z,71.54
2018-06-03T13:35:44.087Z,70.70
2018-06-03T13:36:44.090Z,69.90
2018-06-03T13:37:44.077Z,70.61
2018-06-03T13:38:44.112Z,69.71
2018-06-03T13:39:44.069Z,70.57
2018-06-03T13:40:44.066Z,70.90
2018-06-03T13:41:44.049Z,71.58
2018-06-03T13:42:44.054Z,72.34
2018-06-03T13:43:44.077Z,72.83
2018-06-03T13:44:44.065Z,72.44
2018-06-03T13:45:44.050Z,71.58
2018-06-03T13:46:44.031Z,70.70
2018-06-03T13:47:44.041Z,69.64
2018-06-03T13:48:44.036Z,69.84
2018-06-03T13:49:44.038Z,70.84
2018-06-03T13:50:44.088Z,70.45
2018-06-03T13:51:44.016Z,69.87
2018-06-03T13:52:44.019Z,68.81
2018-06-03T13:53:44.011Z,69.00
2018-06-03T13:54:44.000Z,68.62